Terminal Aerodrome Forecast
Issued by NWS

Home | Current Version | Previous Version | Text Only | Print | Product List | Glossary On
Versions: 1 2 3 4 5 6 7 8 9 10 11 12 13
790
FTUS44 KLIX 270520
TAFMCB
TAF
KMCB 270520Z 2706/2806 00000KT P6SM FEW050
     FM271700 09006KT P6SM SCT050
     FM280000 VRB03KT P6SM OVC110=

USA.gov is the U.S. government's official web portal to all federal, state and local government web resources and services.